sensor_id;sensor_type;location;lat;lon;timestamp;temperature;humidity
6333;DHT22;3199;49.102;8.856;2023-02-15T00:01:55;1.10;99.90
6333;DHT22;3199;49.102;8.856;2023-02-15T00:04:23;1.10;99.90
6333;DHT22;3199;49.102;8.856;2023-02-15T00:06:49;1.10;99.90
6333;DHT22;3199;49.102;8.856;2023-02-15T00:09:15;1.10;99.90
6333;DHT22;3199;49.102;8.856;2023-02-15T00:11:41;1.20;99.90
6333;DHT22;3199;49.102;8.856;2023-02-15T00:14:23;1.10;99.90
6333;DHT22;3199;49.102;8.856;2023-02-15T00:16:50;1.20;99.90
6333;DHT22;3199;49.102;8.856;2023-02-15T00:19:17;1.20;99.90
6333;DHT22;3199;49.102;8.856;2023-02-15T00:21:44;1.20;99.90
6333;DHT22;3199;49.102;8.856;2023-02-15T00:24:11;1.30;99.90
6333;DHT22;3199;49.102;8.856;2023-02-15T00:26:41;1.30;99.90
6333;DHT22;3199;49.102;8.856;2023-02-15T00:29:07;1.30;99.90
6333;DHT22;3199;49.102;8.856;2023-02-15T00:31:34;1.30;99.90
6333;DHT22;3199;49.102;8.856;2023-02-15T00:34:04;1.40;99.90
6333;DHT22;3199;49.102;8.856;2023-02-15T00:36:29;1.30;99.90
6333;DHT22;3199;49.102;8.856;2023-02-15T00:38:55;1.40;99.90
6333;DHT22;3199;49.102;8.856;2023-02-15T00:41:21;1.30;99.90
6333;DHT22;3199;49.102;8.856;2023-02-15T00:43:46;1.30;99.90
6333;DHT22;3199;49.102;8.856;2023-02-15T00:46:12;1.30;99.90
6333;DHT22;3199;49.102;8.856;2023-02-15T00:48:37;1.30;99.90
6333;DHT22;3199;49.102;8.856;2023-02-15T00:51:03;1.30;99.90
6333;DHT22;3199;49.102;8.856;2023-02-15T00:53:29;1.30;99.90
6333;DHT22;3199;49.102;8.856;2023-02-15T00:55:55;1.30;99.90
6333;DHT22;3199;49.102;8.856;2023-02-15T00:58:21;1.30;99.90
6333;DHT22;3199;49.102;8.856;2023-02-15T01:00:47;1.30;99.90
6333;DHT22;3199;49.102;8.856;2023-02-15T01:03:14;1.40;99.90
6333;DHT22;3199;49.102;8.856;2023-02-15T01:05:40;1.30;99.90
6333;DHT22;3199;49.102;8.856;2023-02-15T01:08:05;1.30;99.90
6333;DHT22;3199;49.102;8.856;2023-02-15T01:10:31;1.30;99.90
6333;DHT22;3199;49.102;8.856;2023-02-15T01:12:58;1.30;99.90
6333;DHT22;3199;49.102;8.856;2023-02-15T01:15:24;1.20;99.90
6333;DHT22;3199;49.102;8.856;2023-02-15T01:17:50;1.20;99.90
6333;DHT22;3199;49.102;8.856;2023-02-15T01:20:27;1.20;99.90
6333;DHT22;3199;49.102;8.856;2023-02-15T01:22:53;1.20;99.90
6333;DHT22;3199;49.102;8.856;2023-02-15T01:25:21;1.20;99.90
6333;DHT22;3199;49.102;8.856;2023-02-15T01:27:46;1.20;99.90
6333;DHT22;3199;49.102;8.856;2023-02-15T01:30:13;1.20;99.90
6333;DHT22;3199;49.102;8.856;2023-02-15T01:32:39;1.10;99.90
6333;DHT22;3199;49.102;8.856;2023-02-15T01:35:05;1.20;99.90
6333;DHT22;3199;49.102;8.856;2023-02-15T01:37:31;1.10;99.90
6333;DHT22;3199;49.102;8.856;2023-02-15T01:39:57;1.10;99.90
6333;DHT22;3199;49.102;8.856;2023-02-15T01:42:24;1.20;99.90
6333;DHT22;3199;49.102;8.856;2023-02-15T01:50:28;1.20;99.90
6333;DHT22;3199;49.102;8.856;2023-02-15T01:53:08;1.20;99.90
6333;DHT22;3199;49.102;8.856;2023-02-15T01:55:57;1.20;99.90
6333;DHT22;3199;49.102;8.856;2023-02-15T01:58:24;1.10;99.90
6333;DHT22;3199;49.102;8.856;2023-02-15T02:00:51;1.10;99.90
6333;DHT22;3199;49.102;8.856;2023-02-15T02:03:16;1.10;99.90
6333;DHT22;3199;49.102;8.856;2023-02-15T02:05:43;1.10;99.90
6333;DHT22;3199;49.102;8.856;2023-02-15T02:08:09;1.10;99.90
6333;DHT22;3199;49.102;8.856;2023-02-15T02:10:35;1.20;99.90
6333;DHT22;3199;49.102;8.856;2023-02-15T02:13:05;1.10;99.90
6333;DHT22;3199;49.102;8.856;2023-02-15T02:35:42;1.20;99.90
6333;DHT22;3199;49.102;8.856;2023-02-15T02:38:26;1.20;99.90
6333;DHT22;3199;49.102;8.856;2023-02-15T02:43:59;1.20;99.90
6333;DHT22;3199;49.102;8.856;2023-02-15T02:46:38;1.20;99.90
6333;DHT22;3199;49.102;8.856;2023-02-15T02:49:04;1.20;99.90
6333;DHT22;3199;49.102;8.856;2023-02-15T02:51:30;1.10;99.90
6333;DHT22;3199;49.102;8.856;2023-02-15T02:54:00;1.20;99.90
6333;DHT22;3199;49.102;8.856;2023-02-15T02:56:46;1.10;99.90
6333;DHT22;3199;49.102;8.856;2023-02-15T02:59:18;1.20;99.90
6333;DHT22;3199;49.102;8.856;2023-02-15T03:01:50;1.20;99.90
6333;DHT22;3199;49.102;8.856;2023-02-15T03:04:24;1.20;99.90
6333;DHT22;3199;49.102;8.856;2023-02-15T03:06:57;1.20;99.90
6333;DHT22;3199;49.102;8.856;2023-02-15T03:09:31;1.20;99.90
6333;DHT22;3199;49.102;8.856;2023-02-15T03:12:42;1.30;99.90
6333;DHT22;3199;49.102;8.856;2023-02-15T03:15:05;1.30;99.90
6333;DHT22;3199;49.102;8.856;2023-02-15T03:17:34;1.20;99.90
6333;DHT22;3199;49.102;8.856;2023-02-15T03:20:09;1.20;99.90
6333;DHT22;3199;49.102;8.856;2023-02-15T03:22:40;1.10;99.90
6333;DHT22;3199;49.102;8.856;2023-02-15T03:25:20;1.10;99.90
6333;DHT22;3199;49.102;8.856;2023-02-15T03:27:53;1.10;99.90
6333;DHT22;3199;49.102;8.856;2023-02-15T03:30:21;1.10;99.90
6333;DHT22;3199;49.102;8.856;2023-02-15T03:32:49;1.10;99.90
6333;DHT22;3199;49.102;8.856;2023-02-15T03:35:15;1.00;99.90
6333;DHT22;3199;49.102;8.856;2023-02-15T03:37:49;1.00;99.90
6333;DHT22;3199;49.102;8.856;2023-02-15T03:40:28;1.00;99.90
6333;DHT22;3199;49.102;8.856;2023-02-15T03:43:15;1.00;99.90
6333;DHT22;3199;49.102;8.856;2023-02-15T03:45:45;1.00;99.90
6333;DHT22;3199;49.102;8.856;2023-02-15T03:48:41;0.90;99.90
6333;DHT22;3199;49.102;8.856;2023-02-15T03:51:12;0.90;99.90
6333;DHT22;3199;49.102;8.856;2023-02-15T03:54:08;0.80;99.90
6333;DHT22;3199;49.102;8.856;2023-02-15T03:56:37;0.80;99.90
6333;DHT22;3199;49.102;8.856;2023-02-15T03:59:04;0.80;99.90
6333;DHT22;3199;49.102;8.856;2023-02-15T04:01:57;0.70;99.90
6333;DHT22;3199;49.102;8.856;2023-02-15T04:04:37;0.70;99.90
6333;DHT22;3199;49.102;8.856;2023-02-15T04:07:06;0.70;99.90
6333;DHT22;3199;49.102;8.856;2023-02-15T04:09:32;0.70;99.90
6333;DHT22;3199;49.102;8.856;2023-02-15T04:12:16;0.70;99.90
6333;DHT22;3199;49.102;8.856;2023-02-15T04:14:42;0.70;99.90
6333;DHT22;3199;49.102;8.856;2023-02-15T04:17:26;0.70;99.90
6333;DHT22;3199;49.102;8.856;2023-02-15T04:19:51;0.60;99.90
6333;DHT22;3199;49.102;8.856;2023-02-15T04:22:35;0.60;99.90
6333;DHT22;3199;49.102;8.856;2023-02-15T04:25:20;0.60;99.90
6333;DHT22;3199;49.102;8.856;2023-02-15T04:27:49;0.60;99.90
6333;DHT22;3199;49.102;8.856;2023-02-15T04:30:17;0.50;99.90
6333;DHT22;3199;49.102;8.856;2023-02-15T04:32:43;0.60;99.90
6333;DHT22;3199;49.102;8.856;2023-02-15T04:35:10;0.60;99.90
6333;DHT22;3199;49.102;8.856;2023-02-15T04:37:36;0.50;99.90
6333;DHT22;3199;49.102;8.856;2023-02-15T04:40:03;0.50;99.90
6333;DHT22;3199;49.102;8.856;2023-02-15T04:42:29;0.60;99.90
6333;DHT22;3199;49.102;8.856;2023-02-15T04:44:55;0.60;99.90
6333;DHT22;3199;49.102;8.856;2023-02-15T04:47:20;0.50;99.90
6333;DHT22;3199;49.102;8.856;2023-02-15T04:49:46;0.50;99.90
6333;DHT22;3199;49.102;8.856;2023-02-15T04:52:12;0.50;99.90
6333;DHT22;3199;49.102;8.856;2023-02-15T04:54:37;0.50;99.90
6333;DHT22;3199;49.102;8.856;2023-02-15T04:57:03;0.50;99.90
6333;DHT22;3199;49.102;8.856;2023-02-15T04:59:29;0.50;99.90
6333;DHT22;3199;49.102;8.856;2023-02-15T05:01:55;0.50;99.90
6333;DHT22;3199;49.102;8.856;2023-02-15T05:04:20;0.60;99.90
6333;DHT22;3199;49.102;8.856;2023-02-15T05:06:46;0.60;99.90
6333;DHT22;3199;49.102;8.856;2023-02-15T05:09:12;0.50;99.90
6333;DHT22;3199;49.102;8.856;2023-02-15T05:11:38;0.50;99.90
6333;DHT22;3199;49.102;8.856;2023-02-15T05:14:03;0.50;99.90
6333;DHT22;3199;49.102;8.856;2023-02-15T05:16:29;0.50;99.90
6333;DHT22;3199;49.102;8.856;2023-02-15T05:18:54;0.50;99.90
6333;DHT22;3199;49.102;8.856;2023-02-15T05:21:20;0.50;99.90
6333;DHT22;3199;49.102;8.856;2023-02-15T05:23:45;0.40;99.90
6333;DHT22;3199;49.102;8.856;2023-02-15T05:26:12;0.40;99.90
6333;DHT22;3199;49.102;8.856;2023-02-15T05:28:59;0.40;99.90
6333;DHT22;3199;49.102;8.856;2023-02-15T05:31:25;0.40;99.90
6333;DHT22;3199;49.102;8.856;2023-02-15T05:33:50;0.40;99.90
6333;DHT22;3199;49.102;8.856;2023-02-15T05:36:16;0.40;99.90
6333;DHT22;3199;49.102;8.856;2023-02-15T05:38:42;0.40;99.90
6333;DHT22;3199;49.102;8.856;2023-02-15T05:41:08;0.40;99.90
6333;DHT22;3199;49.102;8.856;2023-02-15T05:43:34;0.40;99.90
6333;DHT22;3199;49.102;8.856;2023-02-15T05:46:01;0.40;99.90
6333;DHT22;3199;49.102;8.856;2023-02-15T05:48:27;0.40;99.90
6333;DHT22;3199;49.102;8.856;2023-02-15T05:51:00;0.50;99.90
6333;DHT22;3199;49.102;8.856;2023-02-15T05:53:27;0.40;99.90
6333;DHT22;3199;49.102;8.856;2023-02-15T05:55:52;0.40;99.90
6333;DHT22;3199;49.102;8.856;2023-02-15T05:58:19;0.40;99.90
6333;DHT22;3199;49.102;8.856;2023-02-15T06:00:45;0.40;99.90
6333;DHT22;3199;49.102;8.856;2023-02-15T06:03:11;0.40;99.90
6333;DHT22;3199;49.102;8.856;2023-02-15T06:05:36;0.40;99.90
6333;DHT22;3199;49.102;8.856;2023-02-15T06:08:02;0.40;99.90
6333;DHT22;3199;49.102;8.856;2023-02-15T06:10:27;0.40;99.90
6333;DHT22;3199;49.102;8.856;2023-02-15T06:12:53;0.40;99.90
6333;DHT22;3199;49.102;8.856;2023-02-15T06:15:18;0.40;99.90
6333;DHT22;3199;49.102;8.856;2023-02-15T06:17:44;0.50;99.90
6333;DHT22;3199;49.102;8.856;2023-02-15T06:20:10;0.50;99.90
6333;DHT22;3199;49.102;8.856;2023-02-15T06:22:35;0.50;99.90
6333;DHT22;3199;49.102;8.856;2023-02-15T06:25:01;0.50;99.90
6333;DHT22;3199;49.102;8.856;2023-02-15T06:27:27;0.60;99.90
6333;DHT22;3199;49.102;8.856;2023-02-15T06:29:52;0.60;99.90
6333;DHT22;3199;49.102;8.856;2023-02-15T06:32:18;1.00;99.90
6333;DHT22;3199;49.102;8.856;2023-02-15T06:34:43;1.80;99.90
6333;DHT22;3199;49.102;8.856;2023-02-15T06:37:09;1.80;99.90
6333;DHT22;3199;49.102;8.856;2023-02-15T06:39:34;1.60;99.90
6333;DHT22;3199;49.102;8.856;2023-02-15T06:42:00;1.50;99.90
6333;DHT22;3199;49.102;8.856;2023-02-15T06:44:25;1.30;99.90
6333;DHT22;3199;49.102;8.856;2023-02-15T06:46:51;1.10;99.90
6333;DHT22;3199;49.102;8.856;2023-02-15T06:49:16;1.00;99.90
6333;DHT22;3199;49.102;8.856;2023-02-15T06:51:42;0.90;99.90
6333;DHT22;3199;49.102;8.856;2023-02-15T06:54:07;0.90;99.90
6333;DHT22;3199;49.102;8.856;2023-02-15T06:56:33;0.80;99.90
6333;DHT22;3199;49.102;8.856;2023-02-15T06:58:58;0.90;99.90
6333;DHT22;3199;49.102;8.856;2023-02-15T07:01:24;0.80;99.90
6333;DHT22;3199;49.102;8.856;2023-02-15T07:03:50;0.80;99.90
6333;DHT22;3199;49.102;8.856;2023-02-15T07:06:15;0.80;99.90
6333;DHT22;3199;49.102;8.856;2023-02-15T07:08:41;0.80;99.90
6333;DHT22;3199;49.102;8.856;2023-02-15T07:11:07;0.80;99.90
6333;DHT22;3199;49.102;8.856;2023-02-15T07:13:51;0.70;99.90
6333;DHT22;3199;49.102;8.856;2023-02-15T07:16:18;0.60;99.90
6333;DHT22;3199;49.102;8.856;2023-02-15T07:18:43;0.60;99.90
6333;DHT22;3199;49.102;8.856;2023-02-15T07:21:09;0.70;99.90
6333;DHT22;3199;49.102;8.856;2023-02-15T07:23:37;0.70;99.90
6333;DHT22;3199;49.102;8.856;2023-02-15T07:26:03;0.70;99.90
6333;DHT22;3199;49.102;8.856;2023-02-15T07:28:29;0.90;99.90
6333;DHT22;3199;49.102;8.856;2023-02-15T07:30:55;1.50;99.90
6333;DHT22;3199;49.102;8.856;2023-02-15T07:33:21;1.50;99.90
6333;DHT22;3199;49.102;8.856;2023-02-15T07:35:49;1.50;99.90
6333;DHT22;3199;49.102;8.856;2023-02-15T07:38:15;1.40;99.90
6333;DHT22;3199;49.102;8.856;2023-02-15T07:40:42;1.20;99.90
6333;DHT22;3199;49.102;8.856;2023-02-15T07:43:07;1.10;99.90
6333;DHT22;3199;49.102;8.856;2023-02-15T07:45:33;1.10;99.90
6333;DHT22;3199;49.102;8.856;2023-02-15T07:48:00;1.10;99.90
6333;DHT22;3199;49.102;8.856;2023-02-15T07:50:26;1.10;99.90
6333;DHT22;3199;49.102;8.856;2023-02-15T07:52:52;1.10;99.90
6333;DHT22;3199;49.102;8.856;2023-02-15T07:55:17;1.00;99.90
6333;DHT22;3199;49.102;8.856;2023-02-15T07:57:48;0.90;99.90
6333;DHT22;3199;49.102;8.856;2023-02-15T08:00:16;0.90;99.90
6333;DHT22;3199;49.102;8.856;2023-02-15T08:02:47;0.90;99.90
6333;DHT22;3199;49.102;8.856;2023-02-15T08:05:12;0.90;99.90
6333;DHT22;3199;49.102;8.856;2023-02-15T08:07:38;1.00;99.90
6333;DHT22;3199;49.102;8.856;2023-02-15T08:10:04;1.10;99.90
6333;DHT22;3199;49.102;8.856;2023-02-15T08:12:29;1.10;99.90
6333;DHT22;3199;49.102;8.856;2023-02-15T08:14:55;1.10;99.90
6333;DHT22;3199;49.102;8.856;2023-02-15T08:17:20;1.10;99.90
6333;DHT22;3199;49.102;8.856;2023-02-15T08:19:46;1.20;99.90
6333;DHT22;3199;49.102;8.856;2023-02-15T08:22:13;1.30;99.90
6333;DHT22;3199;49.102;8.856;2023-02-15T08:24:40;1.20;99.90
6333;DHT22;3199;49.102;8.856;2023-02-15T08:27:08;1.20;99.90
6333;DHT22;3199;49.102;8.856;2023-02-15T08:29:35;1.20;99.90
6333;DHT22;3199;49.102;8.856;2023-02-15T08:32:04;1.20;99.90
6333;DHT22;3199;49.102;8.856;2023-02-15T08:34:32;1.20;99.90
6333;DHT22;3199;49.102;8.856;2023-02-15T08:36:59;1.30;99.90
6333;DHT22;3199;49.102;8.856;2023-02-15T08:39:24;1.30;99.90
6333;DHT22;3199;49.102;8.856;2023-02-15T08:41:50;1.40;99.90
6333;DHT22;3199;49.102;8.856;2023-02-15T08:44:18;1.40;99.90
6333;DHT22;3199;49.102;8.856;2023-02-15T08:46:45;1.40;99.90
6333;DHT22;3199;49.102;8.856;2023-02-15T08:49:13;1.50;99.90
6333;DHT22;3199;49.102;8.856;2023-02-15T08:51:40;1.50;99.90
6333;DHT22;3199;49.102;8.856;2023-02-15T08:54:08;1.60;99.90
6333;DHT22;3199;49.102;8.856;2023-02-15T08:56:37;1.60;99.90
6333;DHT22;3199;49.102;8.856;2023-02-15T08:59:04;1.60;99.90
6333;DHT22;3199;49.102;8.856;2023-02-15T09:01:32;1.50;99.90
6333;DHT22;3199;49.102;8.856;2023-02-15T09:03:59;1.50;99.90
6333;DHT22;3199;49.102;8.856;2023-02-15T09:06:25;1.50;99.90
6333;DHT22;3199;49.102;8.856;2023-02-15T09:08:52;1.60;99.90
6333;DHT22;3199;49.102;8.856;2023-02-15T09:11:22;1.50;99.90
6333;DHT22;3199;49.102;8.856;2023-02-15T09:14:10;1.60;99.90
6333;DHT22;3199;49.102;8.856;2023-02-15T09:16:38;1.60;99.90
6333;DHT22;3199;49.102;8.856;2023-02-15T09:19:05;1.70;99.90
6333;DHT22;3199;49.102;8.856;2023-02-15T09:21:33;1.80;99.90
6333;DHT22;3199;49.102;8.856;2023-02-15T09:24:00;1.80;99.90
6333;DHT22;3199;49.102;8.856;2023-02-15T09:26:28;1.90;99.90
6333;DHT22;3199;49.102;8.856;2023-02-15T09:28:57;2.00;99.90
6333;DHT22;3199;49.102;8.856;2023-02-15T09:31:25;2.10;99.90
6333;DHT22;3199;49.102;8.856;2023-02-15T09:33:51;2.10;99.90
6333;DHT22;3199;49.102;8.856;2023-02-15T09:36:27;2.10;99.90
6333;DHT22;3199;49.102;8.856;2023-02-15T09:38:59;2.10;99.90
6333;DHT22;3199;49.102;8.856;2023-02-15T09:55:43;2.40;99.90
6333;DHT22;3199;49.102;8.856;2023-02-15T10:04:00;2.60;99.90
6333;DHT22;3199;49.102;8.856;2023-02-15T10:07:29;2.60;99.90
6333;DHT22;3199;49.102;8.856;2023-02-15T10:09:40;2.70;99.90
6333;DHT22;3199;49.102;8.856;2023-02-15T10:12:20;2.80;99.90
6333;DHT22;3199;49.102;8.856;2023-02-15T10:18:04;2.90;99.90
6333;DHT22;3199;49.102;8.856;2023-02-15T10:23:41;2.90;99.90
6333;DHT22;3199;49.102;8.856;2023-02-15T10:26:27;2.80;99.90
6333;DHT22;3199;49.102;8.856;2023-02-15T10:29:12;2.80;99.90
6333;DHT22;3199;49.102;8.856;2023-02-15T10:39:43;2.70;99.90
6333;DHT22;3199;49.102;8.856;2023-02-15T10:45:44;2.80;99.90
6333;DHT22;3199;49.102;8.856;2023-02-15T10:56:36;3.30;99.90
6333;DHT22;3199;49.102;8.856;2023-02-15T11:02:31;3.50;99.90
6333;DHT22;3199;49.102;8.856;2023-02-15T11:05:26;3.60;99.90
6333;DHT22;3199;49.102;8.856;2023-02-15T11:07:57;3.70;99.90
6333;DHT22;3199;49.102;8.856;2023-02-15T11:10:48;3.70;99.90
6333;DHT22;3199;49.102;8.856;2023-02-15T11:13:19;3.70;99.90
6333;DHT22;3199;49.102;8.856;2023-02-15T11:15:59;3.70;99.90
6333;DHT22;3199;49.102;8.856;2023-02-15T11:18:28;3.80;99.90
6333;DHT22;3199;49.102;8.856;2023-02-15T11:21:02;3.90;99.90
6333;DHT22;3199;49.102;8.856;2023-02-15T11:23:30;3.90;99.90
6333;DHT22;3199;49.102;8.856;2023-02-15T11:25:58;3.90;99.90
6333;DHT22;3199;49.102;8.856;2023-02-15T11:28:37;4.00;99.90
6333;DHT22;3199;49.102;8.856;2023-02-15T11:31:19;4.00;99.90
6333;DHT22;3199;49.102;8.856;2023-02-15T11:33:50;4.00;99.90
6333;DHT22;3199;49.102;8.856;2023-02-15T11:36:24;4.00;99.90
6333;DHT22;3199;49.102;8.856;2023-02-15T11:38:56;4.00;99.90
6333;DHT22;3199;49.102;8.856;2023-02-15T11:41:27;3.90;99.90
6333;DHT22;3199;49.102;8.856;2023-02-15T11:44:00;3.90;99.90
6333;DHT22;3199;49.102;8.856;2023-02-15T11:46:31;3.80;99.90
6333;DHT22;3199;49.102;8.856;2023-02-15T11:48:56;3.80;99.90
6333;DHT22;3199;49.102;8.856;2023-02-15T11:51:23;3.90;99.90
6333;DHT22;3199;49.102;8.856;2023-02-15T11:53:49;4.00;99.90
6333;DHT22;3199;49.102;8.856;2023-02-15T11:56:21;4.10;99.90
6333;DHT22;3199;49.102;8.856;2023-02-15T11:59:04;4.00;99.90
6333;DHT22;3199;49.102;8.856;2023-02-15T12:01:40;4.00;99.90
6333;DHT22;3199;49.102;8.856;2023-02-15T12:04:18;4.00;99.90
6333;DHT22;3199;49.102;8.856;2023-02-15T12:06:49;4.10;99.90
6333;DHT22;3199;49.102;8.856;2023-02-15T12:09:33;4.20;99.90
6333;DHT22;3199;49.102;8.856;2023-02-15T12:12:20;4.20;99.90
6333;DHT22;3199;49.102;8.856;2023-02-15T12:14:48;4.30;99.90
6333;DHT22;3199;49.102;8.856;2023-02-15T12:17:15;4.30;99.90
6333;DHT22;3199;49.102;8.856;2023-02-15T12:19:41;4.20;99.90
6333;DHT22;3199;49.102;8.856;2023-02-15T12:22:28;4.10;99.90
6333;DHT22;3199;49.102;8.856;2023-02-15T12:24:56;4.10;99.90
6333;DHT22;3199;49.102;8.856;2023-02-15T12:27:49;4.10;99.90
6333;DHT22;3199;49.102;8.856;2023-02-15T12:30:27;4.10;99.90
6333;DHT22;3199;49.102;8.856;2023-02-15T12:32:59;4.10;99.90
6333;DHT22;3199;49.102;8.856;2023-02-15T12:35:32;4.20;99.90
6333;DHT22;3199;49.102;8.856;2023-02-15T12:40:27;4.40;99.90
6333;DHT22;3199;49.102;8.856;2023-02-15T12:42:53;4.50;99.90
6333;DHT22;3199;49.102;8.856;2023-02-15T12:45:30;4.60;99.90
6333;DHT22;3199;49.102;8.856;2023-02-15T12:48:17;4.70;99.90
6333;DHT22;3199;49.102;8.856;2023-02-15T12:51:06;4.80;99.90
6333;DHT22;3199;49.102;8.856;2023-02-15T12:53:35;4.80;99.90
6333;DHT22;3199;49.102;8.856;2023-02-15T12:56:04;4.70;99.90
6333;DHT22;3199;49.102;8.856;2023-02-15T12:58:38;4.70;99.90
6333;DHT22;3199;49.102;8.856;2023-02-15T13:01:19;4.80;99.90
6333;DHT22;3199;49.102;8.856;2023-02-15T13:04:01;4.80;99.90
6333;DHT22;3199;49.102;8.856;2023-02-15T13:06:31;4.90;99.90
6333;DHT22;3199;49.102;8.856;2023-02-15T13:11:46;5.10;99.90
6333;DHT22;3199;49.102;8.856;2023-02-15T13:16:45;5.40;99.90
6333;DHT22;3199;49.102;8.856;2023-02-15T13:19:22;5.60;99.90
6333;DHT22;3199;49.102;8.856;2023-02-15T13:21:53;5.60;99.90
6333;DHT22;3199;49.102;8.856;2023-02-15T13:24:25;5.60;99.90
6333;DHT22;3199;49.102;8.856;2023-02-15T13:26:55;5.60;99.90
6333;DHT22;3199;49.102;8.856;2023-02-15T13:29:28;5.70;99.90
6333;DHT22;3199;49.102;8.856;2023-02-15T13:31:57;5.60;99.90
6333;DHT22;3199;49.102;8.856;2023-02-15T13:34:30;5.60;99.90
6333;DHT22;3199;49.102;8.856;2023-02-15T13:39:47;5.70;99.90
6333;DHT22;3199;49.102;8.856;2023-02-15T13:42:43;5.80;99.90
6333;DHT22;3199;49.102;8.856;2023-02-15T13:56:22;5.50;99.90
6333;DHT22;3199;49.102;8.856;2023-02-15T14:01:49;5.20;99.90
6333;DHT22;3199;49.102;8.856;2023-02-15T14:09:43;5.20;99.90
6333;DHT22;3199;49.102;8.856;2023-02-15T14:14:52;5.10;99.90
6333;DHT22;3199;49.102;8.856;2023-02-15T14:20:17;5.20;99.90
6333;DHT22;3199;49.102;8.856;2023-02-15T14:22:52;5.20;99.90
6333;DHT22;3199;49.102;8.856;2023-02-15T14:25:44;5.30;99.90
6333;DHT22;3199;49.102;8.856;2023-02-15T14:31:07;5.40;99.90
6333;DHT22;3199;49.102;8.856;2023-02-15T14:33:38;5.50;99.90
6333;DHT22;3199;49.102;8.856;2023-02-15T14:36:07;5.50;99.90
6333;DHT22;3199;49.102;8.856;2023-02-15T14:41:24;5.60;99.90
6333;DHT22;3199;49.102;8.856;2023-02-15T14:47:06;5.60;99.90
6333;DHT22;3199;49.102;8.856;2023-02-15T14:49:36;5.60;99.90
6333;DHT22;3199;49.102;8.856;2023-02-15T14:52:10;5.70;99.90
6333;DHT22;3199;49.102;8.856;2023-02-15T15:02:43;5.80;99.90
6333;DHT22;3199;49.102;8.856;2023-02-15T15:05:32;5.70;99.90
6333;DHT22;3199;49.102;8.856;2023-02-15T15:08:01;5.70;99.90
6333;DHT22;3199;49.102;8.856;2023-02-15T15:10:37;5.70;99.90
6333;DHT22;3199;49.102;8.856;2023-02-15T15:15:55;5.70;99.90
6333;DHT22;3199;49.102;8.856;2023-02-15T15:18:43;5.70;99.90
6333;DHT22;3199;49.102;8.856;2023-02-15T15:21:09;5.70;99.90
6333;DHT22;3199;49.102;8.856;2023-02-15T15:23:41;5.70;99.90
6333;DHT22;3199;49.102;8.856;2023-02-15T15:26:29;5.60;99.90
6333;DHT22;3199;49.102;8.856;2023-02-15T15:28:58;5.60;99.90
6333;DHT22;3199;49.102;8.856;2023-02-15T15:31:48;5.60;99.90
6333;DHT22;3199;49.102;8.856;2023-02-15T15:34:32;5.50;99.90
6333;DHT22;3199;49.102;8.856;2023-02-15T15:42:49;5.30;99.90
6333;DHT22;3199;49.102;8.856;2023-02-15T15:45:38;5.40;99.90
6333;DHT22;3199;49.102;8.856;2023-02-15T15:51:32;5.50;99.90
6333;DHT22;3199;49.102;8.856;2023-02-15T15:53:58;5.40;99.90
6333;DHT22;3199;49.102;8.856;2023-02-15T15:56:31;5.40;99.90
6333;DHT22;3199;49.102;8.856;2023-02-15T15:59:05;5.30;99.90
6333;DHT22;3199;49.102;8.856;2023-02-15T16:01:37;5.30;99.90
6333;DHT22;3199;49.102;8.856;2023-02-15T16:04:04;5.40;99.90
6333;DHT22;3199;49.102;8.856;2023-02-15T16:06:39;5.40;99.90
6333;DHT22;3199;49.102;8.856;2023-02-15T16:11:39;5.30;99.90
6333;DHT22;3199;49.102;8.856;2023-02-15T16:14:14;5.30;99.90
6333;DHT22;3199;49.102;8.856;2023-02-15T16:16:41;5.20;99.90
6333;DHT22;3199;49.102;8.856;2023-02-15T16:19:18;5.20;99.90
6333;DHT22;3199;49.102;8.856;2023-02-15T16:21:47;5.20;99.90
6333;DHT22;3199;49.102;8.856;2023-02-15T16:24:26;5.30;99.90
6333;DHT22;3199;49.102;8.856;2023-02-15T16:27:14;5.40;99.90
6333;DHT22;3199;49.102;8.856;2023-02-15T16:29:42;5.30;99.90
6333;DHT22;3199;49.102;8.856;2023-02-15T16:32:24;5.20;99.90
6333;DHT22;3199;49.102;8.856;2023-02-15T16:34:52;5.10;99.90
6333;DHT22;3199;49.102;8.856;2023-02-15T16:37:20;5.00;99.90
6333;DHT22;3199;49.102;8.856;2023-02-15T16:39:49;4.90;99.90
6333;DHT22;3199;49.102;8.856;2023-02-15T16:42:16;4.80;99.90
6333;DHT22;3199;49.102;8.856;2023-02-15T16:44:43;4.80;99.90
6333;DHT22;3199;49.102;8.856;2023-02-15T16:47:20;4.70;99.90
6333;DHT22;3199;49.102;8.856;2023-02-15T16:49:48;4.60;99.90
6333;DHT22;3199;49.102;8.856;2023-02-15T16:52:25;4.50;99.90
6333;DHT22;3199;49.102;8.856;2023-02-15T16:55:00;4.40;99.90
6333;DHT22;3199;49.102;8.856;2023-02-15T16:57:37;4.30;99.90
6333;DHT22;3199;49.102;8.856;2023-02-15T17:00:06;4.30;99.90
6333;DHT22;3199;49.102;8.856;2023-02-15T17:02:59;4.20;99.90
6333;DHT22;3199;49.102;8.856;2023-02-15T17:05:47;4.40;99.90
6333;DHT22;3199;49.102;8.856;2023-02-15T17:13:29;4.10;99.90
6333;DHT22;3199;49.102;8.856;2023-02-15T17:18:38;3.90;99.90
6333;DHT22;3199;49.102;8.856;2023-02-15T17:21:18;3.70;99.90
6333;DHT22;3199;49.102;8.856;2023-02-15T17:23:47;3.60;99.90
6333;DHT22;3199;49.102;8.856;2023-02-15T17:26:23;3.50;99.90
6333;DHT22;3199;49.102;8.856;2023-02-15T17:31:17;3.30;99.90
6333;DHT22;3199;49.102;8.856;2023-02-15T17:33:43;3.30;99.90
6333;DHT22;3199;49.102;8.856;2023-02-15T17:36:23;3.30;99.90
6333;DHT22;3199;49.102;8.856;2023-02-15T17:41:25;3.10;99.90
6333;DHT22;3199;49.102;8.856;2023-02-15T17:43:50;3.00;99.90
6333;DHT22;3199;49.102;8.856;2023-02-15T17:46:16;2.90;99.90
6333;DHT22;3199;49.102;8.856;2023-02-15T17:48:46;2.90;99.90
6333;DHT22;3199;49.102;8.856;2023-02-15T17:51:13;2.80;99.90
6333;DHT22;3199;49.102;8.856;2023-02-15T17:53:39;2.70;99.90
6333;DHT22;3199;49.102;8.856;2023-02-15T17:56:05;2.70;99.90
6333;DHT22;3199;49.102;8.856;2023-02-15T17:58:38;2.60;99.90
6333;DHT22;3199;49.102;8.856;2023-02-15T18:01:09;2.60;99.90
6333;DHT22;3199;49.102;8.856;2023-02-15T18:03:55;2.50;99.90
6333;DHT22;3199;49.102;8.856;2023-02-15T18:06:41;2.50;99.90
6333;DHT22;3199;49.102;8.856;2023-02-15T18:09:26;2.40;99.90
6333;DHT22;3199;49.102;8.856;2023-02-15T18:12:23;2.40;99.90
6333;DHT22;3199;49.102;8.856;2023-02-15T18:14:49;2.30;99.90
6333;DHT22;3199;49.102;8.856;2023-02-15T18:17:16;2.30;99.90
6333;DHT22;3199;49.102;8.856;2023-02-15T18:19:43;2.30;99.90
6333;DHT22;3199;49.102;8.856;2023-02-15T18:22:15;2.20;99.90
6333;DHT22;3199;49.102;8.856;2023-02-15T18:24:41;2.10;99.90
6333;DHT22;3199;49.102;8.856;2023-02-15T18:27:11;2.10;99.90
6333;DHT22;3199;49.102;8.856;2023-02-15T18:29:36;2.10;99.90
6333;DHT22;3199;49.102;8.856;2023-02-15T18:32:03;2.00;99.90
6333;DHT22;3199;49.102;8.856;2023-02-15T18:34:34;2.00;99.90
6333;DHT22;3199;49.102;8.856;2023-02-15T18:37:03;1.90;99.90
6333;DHT22;3199;49.102;8.856;2023-02-15T18:39:37;1.90;99.90
6333;DHT22;3199;49.102;8.856;2023-02-15T18:42:05;1.80;99.90
6333;DHT22;3199;49.102;8.856;2023-02-15T18:44:30;1.80;99.90
6333;DHT22;3199;49.102;8.856;2023-02-15T18:46:56;1.70;99.90
6333;DHT22;3199;49.102;8.856;2023-02-15T18:49:21;2.00;99.90
6333;DHT22;3199;49.102;8.856;2023-02-15T18:51:47;2.00;99.90
6333;DHT22;3199;49.102;8.856;2023-02-15T18:54:19;2.00;99.90
6333;DHT22;3199;49.102;8.856;2023-02-15T18:56:51;1.90;99.90
6333;DHT22;3199;49.102;8.856;2023-02-15T18:59:18;1.80;99.90
6333;DHT22;3199;49.102;8.856;2023-02-15T19:01:43;1.80;99.90
6333;DHT22;3199;49.102;8.856;2023-02-15T19:04:09;1.70;99.90
6333;DHT22;3199;49.102;8.856;2023-02-15T19:06:36;1.70;99.90
6333;DHT22;3199;49.102;8.856;2023-02-15T19:09:04;1.70;99.90
6333;DHT22;3199;49.102;8.856;2023-02-15T19:11:29;1.60;99.90
6333;DHT22;3199;49.102;8.856;2023-02-15T19:13:55;1.60;99.90
6333;DHT22;3199;49.102;8.856;2023-02-15T19:16:25;1.50;99.90
6333;DHT22;3199;49.102;8.856;2023-02-15T19:18:52;1.50;99.90